createdAt,value
2022-08-16T00:05:02.174Z,21.68
2022-08-16T00:10:08.627Z,21.75
2022-08-16T00:15:51.986Z,21.80
2022-08-16T00:20:53.654Z,21.79
2022-08-16T00:26:34.963Z,21.78
2022-08-16T00:31:20.131Z,21.79
2022-08-16T00:36:27.881Z,21.83
2022-08-16T00:41:32.421Z,21.80
2022-08-16T00:47:06.140Z,21.75
2022-08-16T00:52:30.327Z,21.66
2022-08-16T00:57:58.302Z,21.53
2022-08-16T01:03:03.595Z,21.53
2022-08-16T01:08:35.120Z,21.46
2022-08-16T01:13:35.578Z,21.34
2022-08-16T01:18:55.898Z,21.26
2022-08-16T01:24:52.291Z,21.15
2022-08-16T01:30:19.517Z,21.18
2022-08-16T01:35:30.647Z,21.20
2022-08-16T01:40:38.691Z,21.20
2022-08-16T01:45:43.491Z,21.17
2022-08-16T01:51:09.217Z,21.20
2022-08-16T01:56:24.494Z,21.22
2022-08-16T02:01:29.960Z,21.25
2022-08-16T02:06:37.893Z,21.25
2022-08-16T02:11:48.558Z,21.12
2022-08-16T02:16:59.472Z,20.98
2022-08-16T02:22:08.927Z,20.93
2022-08-16T02:27:26.742Z,20.89
2022-08-16T02:32:49.000Z,20.91
2022-08-16T02:37:56.181Z,20.93
2022-08-16T02:42:59.514Z,20.98
2022-08-16T02:48:29.503Z,21.03
2022-08-16T02:53:27.075Z,21.10
2022-08-16T02:58:33.889Z,21.12
2022-08-16T03:04:39.792Z,21.17
2022-08-16T03:09:01.285Z,21.21
2022-08-16T03:14:07.389Z,21.16
2022-08-16T03:19:11.090Z,21.13
2022-08-16T03:24:29.260Z,21.14
2022-08-16T03:29:34.012Z,21.15
2022-08-16T03:34:37.048Z,21.17
2022-08-16T03:39:42.928Z,21.21
2022-08-16T03:44:47.554Z,21.29
2022-08-16T03:49:52.539Z,21.28
2022-08-16T03:54:58.266Z,21.24
2022-08-16T04:00:20.613Z,21.21
2022-08-16T04:05:47.442Z,21.25
2022-08-16T04:10:53.050Z,21.33
2022-08-16T04:15:59.422Z,21.42
2022-08-16T04:21:04.634Z,21.50
2022-08-16T04:26:08.260Z,21.61
2022-08-16T04:31:20.621Z,21.63
2022-08-16T04:36:23.811Z,21.68
2022-08-16T04:41:32.897Z,21.72
2022-08-16T04:47:02.936Z,21.77
2022-08-16T04:52:05.878Z,21.83
2022-08-16T04:57:30.132Z,21.91
2022-08-16T05:02:41.503Z,21.98
2022-08-16T05:07:59.645Z,22.02
2022-08-16T05:13:04.861Z,22.06
2022-08-16T05:18:16.183Z,22.18
2022-08-16T05:23:21.154Z,22.40
2022-08-16T05:28:37.367Z,22.65
2022-08-16T05:33:42.096Z,22.76
2022-08-16T05:38:45.661Z,22.81
2022-08-16T05:43:49.477Z,22.84
2022-08-16T05:48:55.246Z,22.93
2022-08-16T05:53:59.884Z,23.09
2022-08-16T05:59:03.031Z,23.22
2022-08-16T06:04:12.888Z,23.26
2022-08-16T06:09:43.551Z,23.34
2022-08-16T06:14:47.524Z,23.37
2022-08-16T06:19:54.889Z,23.56
2022-08-16T06:24:59.027Z,23.79
2022-08-16T06:30:04.135Z,23.91
2022-08-16T06:35:09.673Z,23.94
2022-08-16T06:40:15.929Z,23.96
2022-08-16T06:45:19.734Z,23.91
2022-08-16T06:50:29.699Z,23.89
2022-08-16T06:55:34.852Z,24.04
2022-08-16T07:00:42.996Z,24.27
2022-08-16T07:05:46.829Z,24.44
2022-08-16T07:10:51.224Z,24.57
2022-08-16T07:15:54.526Z,24.69
2022-08-16T07:21:01.979Z,24.79
2022-08-16T07:26:11.425Z,24.89
2022-08-16T07:31:38.083Z,24.92
2022-08-16T07:36:41.526Z,24.92
2022-08-16T07:41:48.521Z,24.94
2022-08-16T07:46:55.462Z,24.94
2022-08-16T07:51:59.728Z,24.90
2022-08-16T07:57:02.870Z,24.91
2022-08-16T08:02:06.278Z,24.94
2022-08-16T08:07:16.263Z,24.94
2022-08-16T08:12:31.612Z,24.93
2022-08-16T08:17:43.026Z,24.92
2022-08-16T08:22:49.386Z,24.96
2022-08-16T08:27:57.464Z,24.99
2022-08-16T08:33:01.314Z,25.04
2022-08-16T08:38:08.664Z,25.06
2022-08-16T08:43:17.960Z,25.06
2022-08-16T08:48:33.329Z,25.06
2022-08-16T08:53:39.907Z,25.09
2022-08-16T08:58:53.689Z,25.11
2022-08-16T09:03:58.677Z,25.17
2022-08-16T09:09:03.648Z,25.24
2022-08-16T09:14:07.318Z,25.25
2022-08-16T09:19:10.298Z,25.19
2022-08-16T09:24:13.342Z,25.14
2022-08-16T09:29:44.863Z,25.06
2022-08-16T09:34:48.973Z,25.10
2022-08-16T09:39:52.471Z,25.18
2022-08-16T09:45:11.181Z,25.27
2022-08-16T09:50:22.660Z,25.32
2022-08-16T09:55:29.064Z,25.31
2022-08-16T10:00:44.506Z,25.29
2022-08-16T10:05:49.705Z,25.26
2022-08-16T10:11:11.994Z,25.21
2022-08-16T10:21:23.574Z,25.11
2022-08-16T10:27:17.071Z,24.97
2022-08-16T10:31:53.629Z,24.83
2022-08-16T10:37:02.521Z,24.74
2022-08-16T10:42:07.139Z,24.69
2022-08-16T10:47:12.010Z,24.68
2022-08-16T10:52:19.036Z,24.64
2022-08-16T10:57:24.603Z,24.63
2022-08-16T11:02:57.560Z,24.64
2022-08-16T11:07:53.531Z,24.60
2022-08-16T11:13:21.156Z,24.63
2022-08-16T11:18:48.604Z,24.70
2022-08-16T11:23:57.566Z,24.73
2022-08-16T11:29:17.540Z,24.73
2022-08-16T11:34:22.015Z,24.70
2022-08-16T11:39:25.099Z,24.65
2022-08-16T11:44:45.376Z,24.62
2022-08-16T11:49:51.775Z,24.67
2022-08-16T11:54:57.055Z,24.72
2022-08-16T12:00:33.855Z,24.75
2022-08-16T12:05:35.360Z,24.80
2022-08-16T12:10:43.114Z,24.80
2022-08-16T12:15:47.552Z,24.84
2022-08-16T12:20:51.928Z,24.90
2022-08-16T12:25:58.556Z,24.98
2022-08-16T12:31:02.936Z,25.01
2022-08-16T12:36:06.203Z,25.02
2022-08-16T12:41:24.450Z,25.05
2022-08-16T12:46:29.950Z,25.03
2022-08-16T12:51:59.046Z,25.05
2022-08-16T12:57:03.195Z,25.06
2022-08-16T13:02:06.711Z,25.03
2022-08-16T13:07:16.508Z,24.97
2022-08-16T13:12:25.084Z,24.93
2022-08-16T13:17:29.813Z,24.90
2022-08-16T13:22:33.359Z,24.91
2022-08-16T13:28:01.680Z,24.96
2022-08-16T13:32:59.920Z,24.98
2022-08-16T13:38:03.680Z,24.92
2022-08-16T13:43:11.396Z,24.97
2022-08-16T13:48:21.838Z,24.98
2022-08-16T13:53:28.532Z,25.02
2022-08-16T13:58:37.143Z,25.05
2022-08-16T14:03:54.526Z,25.03
2022-08-16T14:08:59.323Z,24.98
2022-08-16T14:14:11.128Z,24.97
2022-08-16T14:19:19.032Z,25.06
2022-08-16T14:24:30.244Z,25.18
2022-08-16T14:29:35.124Z,25.34
2022-08-16T14:34:41.940Z,25.46
2022-08-16T14:39:45.438Z,25.54
2022-08-16T14:44:49.332Z,25.57
2022-08-16T14:49:53.034Z,25.57
2022-08-16T14:54:56.581Z,25.59
2022-08-16T15:00:06.206Z,25.65
2022-08-16T15:05:12.021Z,25.66
2022-08-16T15:10:24.097Z,25.67
2022-08-16T15:15:30.151Z,25.67
2022-08-16T15:20:35.677Z,25.66
2022-08-16T15:25:47.186Z,25.63
2022-08-16T15:31:14.988Z,25.60
2022-08-16T15:36:20.543Z,25.60
2022-08-16T15:41:38.812Z,25.59
2022-08-16T15:46:56.941Z,25.55
2022-08-16T15:52:03.114Z,25.48
2022-08-16T15:57:11.686Z,25.39
2022-08-16T16:02:18.514Z,25.29
2022-08-16T16:07:33.327Z,25.19
2022-08-16T16:12:50.931Z,25.11
2022-08-16T16:17:58.391Z,25.04
2022-08-16T16:23:10.330Z,25.01
2022-08-16T16:29:05.447Z,25.03
2022-08-16T16:33:44.597Z,25.06
2022-08-16T16:38:49.667Z,25.06
2022-08-16T16:43:55.194Z,25.02
2022-08-16T16:48:58.713Z,24.96
2022-08-16T16:54:02.739Z,24.89
2022-08-16T16:59:09.797Z,24.82
2022-08-16T17:04:19.571Z,24.79
2022-08-16T17:09:25.371Z,24.77
2022-08-16T17:14:32.792Z,24.75
2022-08-16T17:19:41.210Z,24.70
2022-08-16T17:24:50.849Z,24.62
2022-08-16T17:29:55.535Z,24.58
2022-08-16T17:35:03.018Z,24.46
2022-08-16T17:40:25.865Z,24.36
2022-08-16T17:45:40.276Z,24.27
2022-08-16T17:50:43.964Z,24.17
2022-08-16T17:55:50.786Z,24.14
2022-08-16T18:00:57.978Z,24.11
2022-08-16T18:06:01.003Z,24.06
2022-08-16T18:11:06.550Z,23.99
2022-08-16T18:16:12.654Z,23.92
2022-08-16T18:21:34.681Z,23.86
2022-08-16T18:26:38.787Z,23.79
2022-08-16T18:31:41.890Z,23.75
2022-08-16T18:36:44.887Z,23.65
2022-08-16T18:41:48.069Z,23.58
2022-08-16T18:46:51.288Z,23.51
2022-08-16T18:51:59.443Z,23.48
2022-08-16T18:57:07.247Z,23.48
2022-08-16T19:02:57.117Z,23.49
2022-08-16T19:07:34.083Z,23.49
2022-08-16T19:12:42.148Z,23.45
2022-08-16T19:17:46.161Z,23.40
2022-08-16T19:23:10.145Z,23.33
2022-08-16T19:28:48.869Z,23.28
2022-08-16T19:33:40.287Z,23.27
2022-08-16T19:38:43.338Z,23.34
2022-08-16T19:43:47.634Z,23.34
2022-08-16T19:48:50.662Z,23.32
2022-08-16T19:53:53.735Z,23.26
2022-08-16T19:59:18.184Z,23.21
2022-08-16T20:04:21.929Z,23.20
2022-08-16T20:09:25.456Z,23.20
2022-08-16T20:14:28.479Z,23.16
2022-08-16T20:19:40.080Z,23.01
2022-08-16T20:24:43.985Z,22.90
2022-08-16T20:29:48.592Z,22.81
2022-08-16T20:34:55.130Z,22.79
2022-08-16T20:40:28.002Z,22.79
2022-08-16T20:45:26.980Z,22.75
2022-08-16T20:50:30.829Z,22.70
2022-08-16T20:55:36.606Z,22.66
2022-08-16T21:00:40.587Z,22.62
2022-08-16T21:05:44.090Z,22.64
2022-08-16T21:10:47.123Z,22.66
2022-08-16T21:15:50.111Z,22.70
2022-08-16T21:20:53.799Z,22.69
2022-08-16T21:25:59.238Z,22.63
2022-08-16T21:31:02.909Z,22.48
2022-08-16T21:36:06.415Z,22.50
2022-08-16T21:41:12.949Z,22.49
2022-08-16T21:46:16.047Z,22.44
2022-08-16T21:51:19.072Z,22.35
2022-08-16T21:56:22.110Z,22.27
2022-08-16T22:01:26.656Z,22.17
2022-08-16T22:06:29.723Z,22.14
2022-08-16T22:11:33.587Z,22.13
2022-08-16T22:16:39.804Z,22.07
2022-08-16T22:21:42.901Z,22.03
2022-08-16T22:26:45.910Z,22.01
2022-08-16T22:31:48.957Z,21.93
2022-08-16T22:36:51.969Z,21.96
2022-08-16T22:41:55.236Z,22.01
2022-08-16T22:46:58.603Z,22.03
2022-08-16T22:52:07.475Z,22.01
2022-08-16T22:57:10.580Z,21.88
2022-08-16T23:02:15.091Z,21.85
2022-08-16T23:07:18.297Z,21.81
2022-08-16T23:12:26.236Z,21.86
2022-08-16T23:17:32.325Z,21.83
2022-08-16T23:23:19.968Z,21.84
2022-08-16T23:28:16.834Z,21.82
2022-08-16T23:33:21.919Z,21.79
2022-08-16T23:38:37.571Z,21.76
2022-08-16T23:43:43.648Z,21.77
2022-08-16T23:49:56.907Z,21.74
2022-08-16T23:54:11.767Z,21.71
2022-08-16T23:59:14.779Z,21.63
